Time;durP1;ratioP1;P1;durP2;ratioP2;P2;SDS_P1;SDS_P2;PMS_P1;PMS_P2;Temp;Humidity;BMP_temperature;BMP_pressure;BME280_temperature;BME280_humidity;BME280_pressure;Samples;Min_cycle;Max_cycle;Signal;HPM_P1;HPM_P2
2021/12/28 00:00:00;;;;;;;7.40;4.30;;;;;;;11.64;63.85;97604.94;5091855;28;20043;-51
2021/12/28 00:02:25;;;;;;;9.70;5.30;;;;;;;11.69;63.36;97590.06;5091765;28;20514;-51
2021/12/28 00:04:51;;;;;;;10.77;3.40;;;;;;;11.66;63.78;97606.28;5091738;28;20082;-51
2021/12/28 00:07:17;;;;;;;3.08;2.30;;;;;;;11.67;62.84;97586.88;5091745;28;20486;-50
2021/12/28 00:09:43;;;;;;;5.55;2.13;;;;;;;11.67;63.50;97570.28;5090436;28;20020;-51
2021/12/28 00:12:09;;;;;;;3.60;2.67;;;;;;;11.78;63.36;97574.72;5090712;28;20024;-51
2021/12/28 00:14:38;;;;;;;3.20;1.73;;;;;;;11.82;62.43;97569.78;5091684;28;20024;-51
2021/12/28 00:19:48;;;;;;;3.78;2.35;;;;;;;11.78;63.11;97580.75;5091707;28;20034;-50
2021/12/28 00:22:15;;;;;;;4.70;2.22;;;;;;;11.73;63.13;97570.19;5091535;28;20420;-51
2021/12/28 00:24:42;;;;;;;10.63;8.25;;;;;;;11.64;63.80;97566.31;5091590;28;20020;-51
2021/12/28 00:27:07;;;;;;;4.35;2.80;;;;;;;11.76;64.31;97569.69;5090265;28;20043;-51
2021/12/28 00:29:33;;;;;;;6.32;4.25;;;;;;;11.79;65.53;97558.72;5091581;28;20016;-51
2021/12/28 00:31:59;;;;;;;11.57;3.90;;;;;;;11.58;65.60;97565.41;5091528;28;20047;-51
2021/12/28 00:34:24;;;;;;;6.80;2.65;;;;;;;11.39;65.11;97585.81;5091373;28;20133;-51
2021/12/28 00:36:50;;;;;;;15.45;5.43;;;;;;;11.30;68.33;97576.69;5091499;28;20014;-51
2021/12/28 00:39:16;;;;;;;4.68;2.60;;;;;;;11.36;66.31;97569.72;5091511;28;20024;-51
2021/12/28 00:41:41;;;;;;;8.02;3.80;;;;;;;11.28;67.03;97620.78;5091394;28;20024;-51
2021/12/28 00:44:07;;;;;;;6.03;2.50;;;;;;;11.29;67.91;97584.78;5091439;28;20032;-51
2021/12/28 00:46:33;;;;;;;8.55;3.70;;;;;;;11.17;68.30;97575.13;5091413;28;20017;-51
2021/12/28 00:48:59;;;;;;;8.65;6.05;;;;;;;11.22;68.51;97600.69;5091707;28;20024;-51
2021/12/28 00:51:25;;;;;;;9.95;3.92;;;;;;;11.08;68.68;97609.84;5095108;28;20445;-51
2021/12/28 00:53:51;;;;;;;12.30;10.20;;;;;;;10.87;70.35;97595.50;5093838;28;20132;-50
2021/12/28 00:56:16;;;;;;;29.92;23.45;;;;;;;10.69;73.09;97622.63;5095063;28;20020;-50
2021/12/28 00:58:42;;;;;;;11.90;8.00;;;;;;;10.47;72.55;97644.16;5095237;28;20028;-50
2021/12/28 01:01:08;;;;;;;9.40;6.05;;;;;;;10.18;73.42;97612.47;5094881;28;20074;-50
2021/12/28 01:03:37;;;;;;;15.27;6.15;;;;;;;9.94;74.54;97629.13;5095001;28;20023;-51
2021/12/28 01:06:05;;;;;;;10.88;5.45;;;;;;;9.83;76.02;97688.34;5094886;28;20027;-50
2021/12/28 01:08:32;;;;;;;11.02;4.65;;;;;;;9.75;77.56;97667.69;5093499;28;20028;-51
2021/12/28 01:10:59;;;;;;;6.60;3.50;;;;;;;9.68;77.81;97643.38;5094766;28;20020;-51
2021/12/28 01:13:25;;;;;;;6.90;4.05;;;;;;;9.67;78.34;97637.34;5094780;28;20035;-50
2021/12/28 01:15:52;;;;;;;5.75;3.38;;;;;;;9.60;78.25;97652.34;5094686;28;20016;-50
2021/12/28 01:18:19;;;;;;;4.50;2.10;;;;;;;9.55;78.55;97637.28;5094639;28;20035;-50
2021/12/28 01:20:46;;;;;;;8.27;3.50;;;;;;;9.52;79.10;97606.28;5094525;28;20432;-50
2021/12/28 01:23:12;;;;;;;7.20;3.72;;;;;;;9.52;79.51;97603.69;5093252;28;20071;-50
2021/12/28 01:25:39;;;;;;;10.85;5.43;;;;;;;9.60;79.98;97600.75;5094550;28;20481;-50
2021/12/28 01:28:05;;;;;;;6.25;4.15;;;;;;;9.64;80.11;97610.78;5094456;28;20031;-49
2021/12/28 01:30:32;;;;;;;12.32;7.30;;;;;;;9.65;79.49;97628.91;5094381;28;20028;-49
2021/12/28 01:33:00;;;;;;;9.55;7.03;;;;;;;9.63;79.46;97630.94;5094139;28;20107;-49
2021/12/28 01:35:28;;;;;;;5.13;2.70;;;;;;;9.65;79.79;97634.13;5094237;28;20031;-49
2021/12/28 01:37:54;;;;;;;5.80;2.55;;;;;;;9.67;80.20;97645.19;5094327;28;20020;-49
2021/12/28 01:40:26;;;;;;;14.07;5.00;;;;;;;9.66;80.18;97643.63;5094190;28;20074;-49
2021/12/28 01:43:07;;;;;;;6.43;2.13;;;;;;;9.64;80.55;97632.56;5092840;28;20085;-50
2021/12/28 01:45:37;;;;;;;3.33;2.58;;;;;;;9.62;80.46;97665.22;5094201;28;20024;-50
2021/12/28 01:48:05;;;;;;;5.72;2.42;;;;;;;9.55;80.54;97667.91;5092829;28;20111;-50
2021/12/28 01:50:31;;;;;;;3.55;1.75;;;;;;;9.57;80.95;97661.44;5094046;28;20485;-50
2021/12/28 01:52:57;;;;;;;6.50;2.72;;;;;;;9.57;81.05;97647.53;5093951;28;20107;-50
2021/12/28 01:55:23;;;;;;;3.17;1.38;;;;;;;9.60;81.17;97626.16;5093918;28;20052;-50
2021/12/28 01:57:49;;;;;;;3.35;1.70;;;;;;;9.62;81.23;97621.50;5093908;28;20016;-51
2021/12/28 02:00:15;;;;;;;97.18;78.35;;;;;;;9.63;80.90;97625.69;5093656;28;20063;-49
2021/12/28 02:02:41;;;;;;;39.03;31.17;;;;;;;9.66;81.14;97608.72;5093029;28;20481;-49
2021/12/28 02:05:07;;;;;;;8.32;5.07;;;;;;;9.68;80.39;97619.78;5092417;28;20028;-50
2021/12/28 02:07:33;;;;;;;5.45;2.95;;;;;;;9.72;80.53;97618.34;5093905;28;20024;-50
2021/12/28 02:09:59;;;;;;;5.68;2.92;;;;;;;9.77;80.29;97627.13;5093639;28;20028;-50
2021/12/28 02:12:29;;;;;;;5.28;2.28;;;;;;;9.79;79.92;97621.69;5093573;28;20517;-49
2021/12/28 02:14:55;;;;;;;4.07;1.58;;;;;;;9.84;79.51;97623.63;5093580;28;20020;-50
2021/12/28 02:17:20;;;;;;;5.22;3.03;;;;;;;9.92;79.62;97641.66;5093546;28;20020;-50
2021/12/28 02:19:46;;;;;;;9.32;5.65;;;;;;;9.95;79.80;97633.38;5093426;28;20149;-50
2021/12/28 02:22:12;;;;;;;4.40;2.05;;;;;;;9.98;79.78;97640.81;5093379;28;20370;-51
2021/12/28 02:24:38;;;;;;;8.50;2.55;;;;;;;10.02;79.60;97643.75;5093344;28;20401;-50
2021/12/28 02:27:04;;;;;;;4.25;1.58;;;;;;;10.05;79.43;97631.00;5093333;28;20016;-50
2021/12/28 02:29:29;;;;;;;4.85;1.25;;;;;;;10.10;79.60;97625.91;5093294;28;20024;-50
2021/12/28 02:31:55;;;;;;;6.07;1.45;;;;;;;10.17;79.22;97617.94;5093202;28;20489;-50
2021/12/28 02:34:26;;;;;;;3.30;1.42;;;;;;;10.14;78.71;97621.81;5091642;28;20497;-50
2021/12/28 02:36:52;;;;;;;7.78;1.85;;;;;;;10.15;79.27;97630.47;5093128;28;20031;-50
2021/12/28 02:39:18;;;;;;;12.85;1.92;;;;;;;10.15;79.49;97620.78;5093122;28;20020;-51
2021/12/28 02:41:45;;;;;;;8.82;3.20;;;;;;;10.17;79.44;97617.94;5092949;28;20017;-51
2021/12/28 02:44:10;;;;;;;5.35;2.38;;;;;;;10.14;79.21;97611.34;5092996;28;20027;-50
2021/12/28 02:46:36;;;;;;;7.25;2.63;;;;;;;10.13;80.06;97627.28;5092912;28;20028;-50
2021/12/28 02:49:04;;;;;;;3.45;1.35;;;;;;;10.17;79.82;97571.53;5092944;28;20494;-51
2021/12/28 02:51:30;;;;;;;5.65;1.10;;;;;;;10.18;79.80;97575.78;5092848;28;20032;-51
2021/12/28 02:53:55;;;;;;;4.95;1.38;;;;;;;10.14;79.84;97592.16;5092870;28;20020;-51
2021/12/28 02:56:22;;;;;;;5.95;3.00;;;;;;;10.17;80.21;97591.72;5092802;28;20031;-51
2021/12/28 02:58:52;;;;;;;7.88;1.67;;;;;;;10.23;80.06;97579.53;5092699;28;20103;-50
2021/12/28 03:01:25;;;;;;;1.42;0.90;;;;;;;10.24;80.11;97565.41;5092630;28;20119;-50
2021/12/28 03:03:56;;;;;;;3.55;1.83;;;;;;;10.30;79.57;97577.63;5092664;28;20020;-50
2021/12/28 03:06:23;;;;;;;5.82;2.42;;;;;;;10.35;79.58;97567.28;5092970;28;20405;-51
2021/12/28 03:08:53;;;;;;;24.45;21.80;;;;;;;10.46;79.22;97553.38;5092547;28;20016;-51
2021/12/28 03:11:20;;;;;;;12.07;4.03;;;;;;;10.47;78.64;97552.34;5091218;28;20478;-51
2021/12/28 03:13:49;;;;;;;6.93;1.88;;;;;;;10.48;78.42;97569.66;5092430;28;20028;-51
2021/12/28 03:16:18;;;;;;;4.20;1.08;;;;;;;10.45;78.19;97567.53;5092456;28;20486;-51
2021/12/28 03:18:44;;;;;;;4.05;1.95;;;;;;;10.49;78.00;97563.41;5092412;28;20024;-51
2021/12/28 03:21:12;;;;;;;2.60;1.33;;;;;;;10.51;77.51;97543.00;5092290;28;20543;-51
2021/12/28 03:23:39;;;;;;;3.60;1.30;;;;;;;10.50;78.00;97538.78;5092277;28;20107;-51
2021/12/28 03:26:06;;;;;;;3.47;1.13;;;;;;;10.50;77.79;97528.31;5092307;28;20028;-51
2021/12/28 03:28:35;;;;;;;6.95;2.75;;;;;;;10.51;78.14;97553.50;5090952;28;20020;-51
2021/12/28 03:31:02;;;;;;;9.07;4.82;;;;;;;10.61;77.91;97525.91;5092216;28;20034;-52
2021/12/28 03:33:30;;;;;;;3.35;1.42;;;;;;;10.58;76.55;97537.63;5091885;28;20048;-51
2021/12/28 03:35:57;;;;;;;5.75;1.65;;;;;;;10.55;77.02;97510.03;5090885;28;20020;-51
2021/12/28 03:38:23;;;;;;;2.75;1.20;;;;;;;10.56;76.66;97514.28;5092214;28;20107;-51
2021/12/28 03:40:50;;;;;;;3.90;1.13;;;;;;;10.63;77.37;97515.97;5091985;28;20019;-51
2021/12/28 03:43:16;;;;;;;2.72;1.52;;;;;;;10.72;76.76;97525.06;5092036;28;20028;-51
2021/12/28 03:45:42;;;;;;;2.42;1.55;;;;;;;10.74;76.47;97510.69;5091991;28;20497;-51
2021/12/28 03:48:08;;;;;;;8.45;2.67;;;;;;;10.72;75.77;97522.44;5090719;28;20026;-51
2021/12/28 03:50:35;;;;;;;2.78;1.58;;;;;;;10.79;75.89;97502.94;5090614;28;20020;-51
2021/12/28 03:53:03;;;;;;;2.75;1.00;;;;;;;10.77;76.32;97499.75;5091962;28;20434;-51
2021/12/28 03:55:29;;;;;;;4.90;1.42;;;;;;;10.67;76.21;97523.16;5091867;28;20113;-50
2021/12/28 03:57:59;;;;;;;1.63;0.85;;;;;;;10.64;76.50;97509.69;5091863;28;20028;-51
2021/12/28 04:00:28;;;;;;;6.82;1.75;;;;;;;10.57;75.82;97510.59;5090604;28;20366;-51
2021/12/28 04:02:54;;;;;;;3.40;1.92;;;;;;;10.59;77.00;97489.41;5091801;28;20020;-52
2021/12/28 04:05:20;;;;;;;5.32;1.20;;;;;;;10.62;75.79;97501.25;5091808;28;20028;-52
2021/12/28 04:07:47;;;;;;;6.00;1.40;;;;;;;10.70;75.75;97493.03;5091769;28;20399;-52
2021/12/28 04:10:15;;;;;;;2.35;1.00;;;;;;;10.82;75.05;97487.75;5091695;28;20501;-51
2021/12/28 04:12:43;;;;;;;1.73;0.80;;;;;;;10.81;74.82;97492.22;5090508;28;20030;-51
2021/12/28 04:15:12;;;;;;;1.58;0.75;;;;;;;10.77;75.96;97477.97;5091759;28;20039;-51
2021/12/28 04:17:38;;;;;;;2.55;0.80;;;;;;;10.82;75.66;97470.19;5091686;28;20047;-51
2021/12/28 04:20:10;;;;;;;4.30;2.65;;;;;;;10.76;75.39;97492.09;5090373;28;20069;-50
2021/12/28 04:22:36;;;;;;;4.85;1.42;;;;;;;10.72;75.04;97465.50;5091688;28;20526;-51
2021/12/28 04:25:02;;;;;;;1.33;0.85;;;;;;;10.72;74.95;97491.75;5093687;28;20020;-51
2021/12/28 04:27:28;;;;;;;2.92;1.27;;;;;;;10.75;74.34;97522.81;5095610;28;20048;-52
2021/12/28 04:29:54;;;;;;;4.20;1.20;;;;;;;10.89;74.04;97497.09;5095610;28;20060;-51
2021/12/28 04:32:19;;;;;;;4.70;1.40;;;;;;;10.99;73.57;97491.28;5095263;28;20028;-51
2021/12/28 04:34:45;;;;;;;2.33;1.33;;;;;;;11.07;72.76;97506.66;5094268;28;20036;-51
2021/12/28 04:37:11;;;;;;;3.03;1.27;;;;;;;11.08;72.57;97489.84;5095474;28;20024;-51
2021/12/28 04:39:37;;;;;;;2.25;1.02;;;;;;;11.13;72.28;97452.41;5094110;28;20508;-51
2021/12/28 04:42:03;;;;;;;2.42;1.23;;;;;;;11.15;72.01;97506.28;5095317;28;20016;-51
2021/12/28 04:44:29;;;;;;;5.38;1.67;;;;;;;11.17;71.58;97512.09;5094059;28;20039;-51
2021/12/28 04:46:55;;;;;;;3.72;1.83;;;;;;;11.22;71.52;97523.75;5095250;28;20020;-51
2021/12/28 04:49:25;;;;;;;3.60;1.38;;;;;;;11.24;71.69;97530.34;5095240;28;20099;-51
2021/12/28 04:51:51;;;;;;;3.40;1.10;;;;;;;11.31;71.17;97540.75;5095160;28;20410;-50
2021/12/28 04:54:18;;;;;;;2.50;1.73;;;;;;;11.38;71.34;97541.38;5095196;28;20036;-51
2021/12/28 04:56:44;;;;;;;4.03;1.52;;;;;;;11.40;70.57;97537.50;5095046;28;20020;-51
2021/12/28 04:59:09;;;;;;;5.05;3.83;;;;;;;11.51;70.54;97575.28;5095024;28;20024;-51
2021/12/28 05:01:37;;;;;;;2.33;1.13;;;;;;;11.52;70.26;97557.69;5094910;28;20016;-50
2021/12/28 05:04:04;;;;;;;4.07;2.38;;;;;;;11.58;69.94;97519.94;5094937;28;20021;-51
2021/12/28 05:06:30;;;;;;;4.43;2.25;;;;;;;11.66;69.42;97542.44;5093579;28;20050;-51
2021/12/28 05:08:56;;;;;;;3.25;1.50;;;;;;;11.68;69.79;97583.22;5094820;28;20519;-51
2021/12/28 05:11:22;;;;;;;2.40;1.30;;;;;;;11.68;69.32;97572.69;5094851;28;20048;-50
2021/12/28 05:13:48;;;;;;;4.25;2.17;;;;;;;11.71;68.83;97530.19;5094745;28;20016;-51
2021/12/28 05:16:16;;;;;;;1.42;0.90;;;;;;;11.74;68.57;97550.72;5094680;28;20020;-52
2021/12/28 05:18:42;;;;;;;7.15;2.33;;;;;;;11.74;68.46;97528.91;5093654;28;20440;-50
2021/12/28 05:21:08;;;;;;;4.85;1.52;;;;;;;11.75;68.45;97547.09;5094564;28;20031;-51
2021/12/28 05:23:34;;;;;;;5.40;1.73;;;;;;;11.89;69.14;97558.13;5094555;28;20074;-51
2021/12/28 05:26:00;;;;;;;2.45;1.30;;;;;;;11.91;68.35;97561.31;5094486;28;20027;-50
2021/12/28 05:28:25;;;;;;;3.50;2.08;;;;;;;11.88;67.63;97539.94;5093205;28;20093;-51
2021/12/28 05:30:52;;;;;;;6.38;3.53;;;;;;;11.87;68.21;97596.16;5094402;28;20025;-51
2021/12/28 05:33:18;;;;;;;3.05;2.08;;;;;;;11.90;67.81;97549.19;5094115;28;20481;-51
2021/12/28 05:35:44;;;;;;;5.43;1.92;;;;;;;11.92;68.02;97572.63;5093201;28;20048;-51
2021/12/28 05:38:12;;;;;;;9.52;2.92;;;;;;;11.92;67.88;97570.00;5094242;28;20081;-51
2021/12/28 05:40:38;;;;;;;5.20;1.98;;;;;;;11.91;67.78;97527.16;5094220;28;20472;-51
2021/12/28 05:43:04;;;;;;;4.03;1.98;;;;;;;12.04;67.79;97564.69;5094114;28;20059;-51
2021/12/28 05:45:31;;;;;;;3.55;1.88;;;;;;;12.08;67.44;97566.59;5092894;28;20432;-51
2021/12/28 05:47:56;;;;;;;5.38;1.95;;;;;;;12.09;67.13;97573.47;5094059;28;20028;-51
2021/12/28 05:50:22;;;;;;;4.88;1.88;;;;;;;12.15;67.07;97608.53;5094049;28;20367;-51
2021/12/28 05:52:48;;;;;;;3.78;1.58;;;;;;;12.14;67.03;97591.94;5094044;28;20035;-51
2021/12/28 05:55:13;;;;;;;9.63;2.65;;;;;;;12.20;67.12;97582.31;5093889;28;20069;-51
2021/12/28 05:57:39;;;;;;;10.90;2.00;;;;;;;12.20;66.94;97592.84;5093991;28;20024;-51
2021/12/28 06:00:10;;;;;;;4.28;1.42;;;;;;;12.20;66.52;97584.94;5094122;28;20028;-51
2021/12/28 06:02:36;;;;;;;4.93;1.90;;;;;;;12.19;66.26;97583.34;5093749;28;20072;-51
2021/12/28 06:05:03;;;;;;;3.30;1.52;;;;;;;12.24;67.06;97611.59;5093825;28;20016;-51
2021/12/28 06:07:28;;;;;;;3.88;1.63;;;;;;;12.37;66.92;97601.56;5093744;28;20027;-50
2021/12/28 06:09:55;;;;;;;3.40;1.42;;;;;;;12.37;66.03;97588.41;5093713;28;20397;-51
2021/12/28 06:12:22;;;;;;;3.67;1.45;;;;;;;12.40;66.11;97592.38;5093649;28;20028;-51
2021/12/28 06:14:48;;;;;;;3.58;1.33;;;;;;;12.41;66.07;97606.31;5092219;28;20047;-52
2021/12/28 06:17:13;;;;;;;14.10;4.35;;;;;;;12.41;66.40;97619.47;5093553;28;20020;-51
2021/12/28 06:19:39;;;;;;;4.63;1.60;;;;;;;12.43;65.79;97578.72;5093541;28;20023;-51
2021/12/28 06:22:05;;;;;;;5.35;2.38;;;;;;;12.44;65.85;97629.53;5093341;28;20035;-52
2021/12/28 06:24:30;;;;;;;8.55;1.33;;;;;;;12.53;65.76;97628.09;5092137;28;20022;-51
2021/12/28 06:26:56;;;;;;;5.63;1.90;;;;;;;12.54;65.00;97637.59;5093327;28;20032;-51
2021/12/28 06:29:22;;;;;;;6.15;2.20;;;;;;;12.55;65.71;97584.69;5091928;28;20024;-52
2021/12/28 06:31:48;;;;;;;3.72;1.30;;;;;;;12.68;65.20;97638.09;5091923;28;20032;-51
2021/12/28 06:34:13;;;;;;;2.85;1.20;;;;;;;12.77;64.65;97616.34;5093027;28;20044;-52
2021/12/28 06:36:39;;;;;;;4.85;1.67;;;;;;;12.70;64.35;97520.97;5091836;28;20038;-51
2021/12/28 06:39:06;;;;;;;4.75;1.65;;;;;;;12.63;65.23;97616.94;5091805;28;20035;-51
2021/12/28 06:41:32;;;;;;;2.72;1.20;;;;;;;12.79;65.03;97627.44;5092966;28;20528;-51
2021/12/28 06:43:58;;;;;;;2.75;1.05;;;;;;;12.83;64.19;97598.81;5093020;28;20027;-51
2021/12/28 06:46:24;;;;;;;2.25;1.30;;;;;;;12.74;64.76;97655.56;5092950;28;20485;-51
2021/12/28 06:48:50;;;;;;;3.63;1.55;;;;;;;12.67;64.75;97641.75;5092644;28;20027;-51
2021/12/28 06:51:15;;;;;;;3.78;1.77;;;;;;;12.63;64.73;97614.31;5092829;28;20073;-52
2021/12/28 06:53:41;;;;;;;4.82;1.17;;;;;;;12.67;64.56;97645.16;5092850;28;20031;-51
2021/12/28 06:56:08;;;;;;;4.95;1.67;;;;;;;12.66;64.67;97629.63;5092785;28;20393;-51
2021/12/28 06:58:34;;;;;;;6.95;1.77;;;;;;;12.72;64.50;97620.78;5092779;28;20016;-51
2021/12/28 07:01:01;;;;;;;3.35;1.63;;;;;;;12.78;64.86;97652.19;5092657;28;20126;-51
2021/12/28 07:03:26;;;;;;;3.00;1.48;;;;;;;12.85;63.97;97638.84;5092671;28;20032;-51
2021/12/28 07:05:52;;;;;;;2.13;1.23;;;;;;;12.90;63.45;97654.75;5092578;28;20080;-51
2021/12/28 07:08:18;;;;;;;2.88;1.00;;;;;;;12.91;63.66;97695.81;5092595;28;20028;-51
2021/12/28 07:10:44;;;;;;;5.13;1.38;;;;;;;12.80;63.70;97678.28;5092514;28;20016;-51
2021/12/28 07:13:09;;;;;;;3.00;1.02;;;;;;;12.81;63.84;97666.72;5092468;28;20057;-52
2021/12/28 07:15:35;;;;;;;4.78;2.17;;;;;;;12.82;64.02;97644.63;5091209;28;20508;-51
2021/12/28 07:18:01;;;;;;;3.72;1.35;;;;;;;12.87;63.44;97678.13;5092405;28;20020;-51
2021/12/28 07:20:27;;;;;;;2.65;0.90;;;;;;;12.94;63.49;97691.94;5092348;28;20026;-52
2021/12/28 07:22:53;;;;;;;7.05;3.33;;;;;;;12.90;63.46;97654.75;5092286;28;20494;-51
2021/12/28 07:25:19;;;;;;;4.75;1.73;;;;;;;12.85;63.37;97686.25;5092292;28;20101;-52
2021/12/28 07:27:45;;;;;;;4.95;1.77;;;;;;;12.87;63.83;97676.28;5092236;28;20488;-51
2021/12/28 07:30:12;;;;;;;4.63;2.35;;;;;;;12.90;63.69;97693.47;5092267;28;20401;-52
2021/12/28 07:32:40;;;;;;;4.55;1.77;;;;;;;12.86;63.91;97719.47;5095875;28;20047;-53
2021/12/28 07:35:07;;;;;;;1.83;0.82;;;;;;;12.95;63.39;97731.19;5092100;28;20109;-51
2021/12/28 07:37:33;;;;;;;4.25;1.50;;;;;;;13.02;63.03;97711.78;5092067;28;20043;-51
2021/12/28 07:39:59;;;;;;;4.88;1.65;;;;;;;12.99;62.91;97713.06;5092076;28;20394;-51
2021/12/28 07:42:25;;;;;;;3.80;1.08;;;;;;;13.02;63.33;97719.69;5091985;28;20028;-51
2021/12/28 07:44:51;;;;;;;6.30;1.48;;;;;;;13.06;63.23;97716.34;5092037;28;20020;-51
2021/12/28 07:47:17;;;;;;;3.83;1.60;;;;;;;13.06;62.96;97705.00;5091926;28;20106;-51
2021/12/28 07:49:43;;;;;;;6.25;1.35;;;;;;;13.00;63.18;97727.84;5092030;28;20603;-51
2021/12/28 07:52:09;;;;;;;3.03;1.10;;;;;;;12.99;63.19;97716.50;5091975;28;20051;-51
2021/12/28 07:54:35;;;;;;;4.00;1.23;;;;;;;13.04;63.10;97714.97;5091949;28;20028;-51
2021/12/28 07:57:01;;;;;;;2.38;1.00;;;;;;;13.15;62.58;97712.25;5091985;28;20094;-51
2021/12/28 07:59:27;;;;;;;7.47;2.72;;;;;;;13.14;62.49;97720.44;5091161;28;20451;-52
2021/12/28 08:01:52;;;;;;;5.75;1.58;;;;;;;13.25;62.33;97718.72;5090480;28;20024;-52
2021/12/28 08:04:19;;;;;;;4.40;1.48;;;;;;;13.25;62.13;97718.72;5091857;28;20091;-51
2021/12/28 08:06:45;;;;;;;2.83;0.65;;;;;;;13.28;61.98;97712.97;5090543;28;20020;-51
2021/12/28 08:09:11;;;;;;;2.08;1.20;;;;;;;13.33;62.03;97744.69;5091807;28;20024;-51
2021/12/28 08:11:37;;;;;;;6.00;1.27;;;;;;;13.30;61.63;97740.72;5091787;28;20080;-51
2021/12/28 08:14:04;;;;;;;4.72;1.08;;;;;;;13.29;61.74;97754.09;5091781;28;20016;-51
2021/12/28 08:16:30;;;;;;;4.25;1.25;;;;;;;13.32;62.03;97764.19;5091731;28;20024;-51
2021/12/28 08:18:56;;;;;;;4.25;1.33;;;;;;;13.43;61.94;97760.66;5091758;28;20024;-51
2021/12/28 08:21:22;;;;;;;3.22;1.42;;;;;;;13.50;61.79;97763.13;5091540;28;20535;-51
2021/12/28 08:23:47;;;;;;;4.38;1.98;;;;;;;13.60;60.93;97755.34;5092100;28;20099;-51
2021/12/28 08:26:16;;;;;;;2.45;1.10;;;;;;;13.57;60.69;97769.81;5091720;28;20119;-52
2021/12/28 08:28:42;;;;;;;4.38;1.50;;;;;;;13.59;60.47;97761.69;5091729;28;20520;-51
2021/12/28 08:31:08;;;;;;;5.20;2.58;;;;;;;13.55;60.96;97773.75;5091635;28;20024;-51
2021/12/28 08:33:34;;;;;;;4.43;1.20;;;;;;;13.59;60.57;97786.19;5091378;28;20048;-51
2021/12/28 08:36:00;;;;;;;3.92;1.00;;;;;;;13.68;60.86;97796.34;5091576;28;20099;-51
2021/12/28 08:38:26;;;;;;;5.65;1.52;;;;;;;13.72;60.71;97805.34;5091501;28;20388;-51
2021/12/28 08:40:52;;;;;;;2.45;1.10;;;;;;;13.70;60.38;97796.88;5091460;28;20025;-51
2021/12/28 08:43:17;;;;;;;4.88;1.50;;;;;;;13.70;60.85;97813.53;5090137;28;20027;-52
2021/12/28 08:45:43;;;;;;;5.00;1.77;;;;;;;13.76;60.54;97840.75;5091397;28;20043;-51
2021/12/28 08:48:13;;;;;;;4.13;1.75;;;;;;;13.71;61.49;97823.03;5091443;28;20032;-51
2021/12/28 08:50:40;;;;;;;8.05;1.98;;;;;;;13.66;61.81;97816.88;5091328;28;20031;-51
2021/12/28 08:53:06;;;;;;;7.28;1.35;;;;;;;13.71;61.96;97817.75;5091389;28;20031;-51
2021/12/28 08:55:33;;;;;;;3.90;1.70;;;;;;;13.77;61.32;97822.06;5091334;28;20042;-51
2021/12/28 08:57:58;;;;;;;3.88;2.15;;;;;;;13.75;61.01;97825.97;5091349;28;20073;-51
2021/12/28 09:00:29;;;;;;;5.07;1.67;;;;;;;13.71;61.56;97825.66;5091344;28;20020;-49
2021/12/28 09:02:57;;;;;;;2.60;1.25;;;;;;;13.73;61.70;97826.22;5091292;28;20028;-51
2021/12/28 09:05:24;;;;;;;8.05;3.72;;;;;;;13.63;61.49;97818.16;5091282;28;20078;-51
2021/12/28 09:07:50;;;;;;;3.20;1.42;;;;;;;13.52;61.34;97827.75;5089948;28;20387;-51
2021/12/28 09:10:16;;;;;;;2.80;1.40;;;;;;;13.48;61.82;97841.66;5091954;28;20032;-51
2021/12/28 09:12:42;;;;;;;4.97;1.80;;;;;;;13.53;62.24;97831.19;5094780;28;20028;-51
2021/12/28 09:15:10;;;;;;;3.55;1.33;;;;;;;13.64;61.59;97842.69;5094794;28;20389;-51
2021/12/28 09:17:37;;;;;;;5.30;2.28;;;;;;;13.66;61.45;97843.25;5093444;28;20461;-51
2021/12/28 09:20:07;;;;;;;3.85;1.40;;;;;;;13.67;60.75;97856.19;5094712;28;20020;-51
2021/12/28 09:22:33;;;;;;;7.82;1.25;;;;;;;13.70;61.10;97860.19;5094872;28;20031;-51
2021/12/28 09:24:58;;;;;;;3.70;1.95;;;;;;;13.65;61.37;97831.09;5094491;28;20024;-50
2021/12/28 09:27:24;;;;;;;4.70;1.20;;;;;;;13.79;60.77;97871.94;5094542;28;20077;-51
2021/12/28 09:29:50;;;;;;;5.05;1.27;;;;;;;13.76;60.98;97861.84;5094482;28;20012;-51
2021/12/28 09:32:17;;;;;;;5.60;1.77;;;;;;;13.90;60.76;97851.75;5094456;28;20036;-51
2021/12/28 09:34:45;;;;;;;7.32;1.33;;;;;;;13.90;60.10;97880.78;5092914;28;20044;-51
2021/12/28 09:37:11;;;;;;;8.52;2.63;;;;;;;13.89;60.53;97895.03;5093031;28;20020;-51
2021/12/28 09:39:37;;;;;;;6.80;1.85;;;;;;;13.86;60.28;97887.56;5094280;28;20398;-50
2021/12/28 09:42:04;;;;;;;4.97;1.50;;;;;;;13.83;60.52;97880.16;5094156;28;20042;-51
2021/12/28 09:44:32;;;;;;;4.68;1.23;;;;;;;13.86;60.32;97892.84;5094250;28;20069;-52
2021/12/28 09:46:59;;;;;;;4.47;1.42;;;;;;;13.92;60.19;97889.25;5092837;28;20024;-51
2021/12/28 09:49:27;;;;;;;9.25;2.78;;;;;;;13.86;60.70;97874.38;5094146;28;20027;-51
2021/12/28 09:51:55;;;;;;;4.38;2.00;;;;;;;13.86;60.37;97898.13;5094061;28;20559;-51
2021/12/28 09:54:25;;;;;;;2.42;1.20;;;;;;;13.84;60.50;97864.06;5094078;28;20058;-51
2021/12/28 09:56:51;;;;;;;4.03;1.63;;;;;;;13.86;60.67;97887.56;5093948;28;20020;-51
2021/12/28 09:59:17;;;;;;;6.35;2.22;;;;;;;13.93;60.25;97885.59;5093984;28;20024;-51
2021/12/28 10:01:43;;;;;;;5.38;1.60;;;;;;;13.96;60.10;97896.47;5093782;28;20024;-51
2021/12/28 10:04:09;;;;;;;4.13;1.35;;;;;;;13.81;60.37;97912.03;5093865;28;20020;-51
2021/12/28 10:06:35;;;;;;;9.27;2.35;;;;;;;13.72;61.08;97926.66;5093804;28;20052;-51
2021/12/28 10:09:06;;;;;;;6.28;1.50;;;;;;;13.82;60.75;97941.84;5093774;28;20032;-51
2021/12/28 10:11:34;;;;;;;3.47;1.40;;;;;;;13.92;60.45;97928.81;5093711;28;20020;-51
2021/12/28 10:14:15;;;;;;;5.15;1.75;;;;;;;13.91;60.52;97935.94;5093663;28;20039;-51
2021/12/28 10:16:55;;;;;;;4.22;1.45;;;;;;;13.91;60.41;97930.66;5092286;28;20069;-51
2021/12/28 10:19:38;;;;;;;4.90;1.50;;;;;;;13.89;60.50;97931.94;5092323;28;20028;-51
2021/12/28 10:22:25;;;;;;;10.05;3.47;;;;;;;13.93;60.60;97925.16;5092728;28;20021;-51
2021/12/28 10:25:08;;;;;;;5.57;2.25;;;;;;;13.93;60.87;97944.41;5093399;28;20059;-51
2021/12/28 10:27:39;;;;;;;5.68;3.30;;;;;;;14.03;60.41;97951.69;5093796;28;20051;-51
2021/12/28 10:30:21;;;;;;;7.10;1.40;;;;;;;14.01;61.15;97961.69;5093662;28;20039;-51
2021/12/28 10:32:49;;;;;;;4.40;1.42;;;;;;;14.05;61.64;97946.19;5093037;28;20027;-51
2021/12/28 10:35:22;;;;;;;4.55;1.33;;;;;;;14.00;60.87;97938.97;5091978;28;20024;-51
2021/12/28 10:37:51;;;;;;;2.53;1.00;;;;;;;13.97;60.31;97944.75;5091919;28;20405;-51
2021/12/28 10:40:56;;;;;;;7.63;1.80;;;;;;;13.97;60.86;97939.47;5093134;28;20382;-51
2021/12/28 10:43:29;;;;;;;6.03;1.25;;;;;;;13.97;60.31;97939.47;5092115;28;20120;-51
2021/12/28 10:46:01;;;;;;;6.30;1.58;;;;;;;13.92;60.49;97928.81;5091715;28;20490;-51
2021/12/28 10:48:32;;;;;;;9.82;2.90;;;;;;;13.91;61.19;97929.88;5091696;28;20036;-51
2021/12/28 10:51:02;;;;;;;10.68;1.98;;;;;;;14.02;60.95;97942.16;5092986;28;20103;-51
2021/12/28 10:53:38;;;;;;;51.65;40.10;;;;;;;14.11;60.83;97940.72;5092850;28;20139;-51
2021/12/28 10:56:09;;;;;;;13.63;4.90;;;;;;;14.36;59.81;97979.09;5092846;28;20024;-52
2021/12/28 10:58:45;;;;;;;29.85;13.40;;;;;;;14.24;60.06;97976.53;5091502;28;20115;-51
2021/12/28 11:01:16;;;;;;;6.90;1.95;;;;;;;14.22;60.06;97957.50;5092652;28;20512;-51
2021/12/28 11:03:48;;;;;;;3.72;1.60;;;;;;;14.18;60.08;97951.94;5092744;28;20036;-51
2021/12/28 11:06:22;;;;;;;3.97;1.50;;;;;;;14.17;59.68;97968.00;5092673;28;20516;-51
2021/12/28 11:08:52;;;;;;;3.08;1.45;;;;;;;14.09;60.30;97966.56;5092695;28;20111;-51
2021/12/28 11:11:21;;;;;;;3.63;1.40;;;;;;;14.09;60.27;97960.50;5092553;28;20029;-51
2021/12/28 11:13:48;;;;;;;5.35;1.67;;;;;;;14.16;60.00;97975.09;5091468;28;20501;-51
2021/12/28 11:16:15;;;;;;;5.80;2.08;;;;;;;14.25;59.73;97972.06;5092480;28;20027;-51
2021/12/28 11:18:47;;;;;;;4.47;2.08;;;;;;;14.30;60.46;97990.59;5092445;28;20024;-51
2021/12/28 11:21:32;;;;;;;5.45;2.40;;;;;;;14.41;59.44;97952.78;5091011;28;20073;-51
2021/12/28 11:24:06;;;;;;;7.45;3.08;;;;;;;14.39;59.29;97946.94;5092413;28;20032;-51
2021/12/28 11:26:38;;;;;;;4.07;1.42;;;;;;;14.31;59.05;97960.56;5092328;28;20024;-51
2021/12/28 11:29:08;;;;;;;4.18;2.15;;;;;;;14.37;59.33;97943.75;5092268;28;20028;-51
2021/12/28 11:31:41;;;;;;;5.05;2.08;;;;;;;14.39;58.55;97952.22;5092564;28;20107;-51
2021/12/28 11:34:21;;;;;;;7.38;1.88;;;;;;;14.39;58.80;97931.09;5090962;28;20131;-51
2021/12/28 11:36:52;;;;;;;8.77;2.15;;;;;;;14.40;58.92;97930.03;5092274;28;20028;-51